Terminal Aerodrome Forecast
Issued by NWS

Home | Current Version | Previous Version | Graphics & Text | Print | Product List | Glossary On
Versions: 1 2 3 4 5 6 7 8 9 10 11 12
000
FTUS45 KGGW 221700
TAFSDY
TAF
KSDY 221723Z 2218/2318 VRB06KT P6SM OVC090
      TEMPO 2218/2219 6SM -SHRA OVC050
     FM221900 21009KT 6SM -SHRA OVC050
     FM222100 24011KT P6SM VCSH OVC060
     FM230600 26019KT P6SM VCSH BKN025
     FM231200 31021G31KT 4SM -SN BLSN OVC015
      AMD LTD TO CLD VIS AND WIND=

USA.gov is the U.S. government's official web portal to all federal, state and local government web resources and services.